createdAt,value
2022-11-30T00:00:25.295Z,14.85
2022-11-30T00:03:36.011Z,15.63
2022-11-30T00:06:43.341Z,17.27
2022-11-30T00:09:53.044Z,15.00
2022-11-30T00:12:56.059Z,17.27
2022-11-30T00:16:09.056Z,17.08
2022-11-30T00:19:20.023Z,21.77
2022-11-30T00:22:23.070Z,19.38
2022-11-30T00:25:32.981Z,16.90
2022-11-30T00:28:44.045Z,15.95
2022-11-30T00:31:53.995Z,15.15
2022-11-30T00:35:05.003Z,15.30
2022-11-30T00:38:14.995Z,12.82
2022-11-30T00:41:26.012Z,13.52
2022-11-30T00:44:28.935Z,16.60
2022-11-30T00:47:38.034Z,13.75
2022-11-30T00:50:49.026Z,12.98
2022-11-30T00:53:52.087Z,16.88
2022-11-30T00:57:02.029Z,13.77
2022-11-30T01:00:11.987Z,14.35
2022-11-30T01:03:24.540Z,15.10
2022-11-30T01:06:29.702Z,15.38
2022-11-30T01:09:38.984Z,13.07
2022-11-30T01:12:41.965Z,14.88
2022-11-30T01:15:52.991Z,13.48
2022-11-30T01:19:03.014Z,12.90
2022-11-30T01:22:13.952Z,14.05
2022-11-30T01:25:23.969Z,17.45
2022-11-30T01:28:26.962Z,14.63
2022-11-30T01:31:35.953Z,16.13
2022-11-30T01:34:38.913Z,13.63
2022-11-30T01:37:49.942Z,15.75
2022-11-30T01:40:59.955Z,12.85
2022-11-30T01:44:48.276Z,13.95
2022-11-30T01:48:03.917Z,14.77
2022-11-30T01:51:07.090Z,12.52
2022-11-30T01:54:21.923Z,12.37
2022-11-30T01:57:38.934Z,14.15
2022-11-30T02:00:46.841Z,14.40
2022-11-30T02:04:06.918Z,14.65
2022-11-30T02:07:10.412Z,13.95
2022-11-30T02:10:30.117Z,15.18
2022-11-30T02:13:57.141Z,11.43
2022-11-30T02:17:19.899Z,16.23
2022-11-30T02:21:00.882Z,13.27
2022-11-30T02:24:44.017Z,13.77
2022-11-30T02:28:16.375Z,14.07
2022-11-30T02:31:34.892Z,11.40
2022-11-30T02:34:49.153Z,14.45
2022-11-30T02:37:55.627Z,12.02
2022-11-30T02:41:04.899Z,14.40
2022-11-30T02:44:12.198Z,13.38
2022-11-30T02:47:30.884Z,13.90
2022-11-30T02:50:46.927Z,14.32
2022-11-30T02:53:56.856Z,15.73
2022-11-30T02:57:05.871Z,14.75
2022-11-30T03:00:12.869Z,13.73
2022-11-30T03:03:25.109Z,16.13
2022-11-30T03:06:34.992Z,13.57
2022-11-30T03:09:38.066Z,16.42
2022-11-30T03:12:47.829Z,14.63
2022-11-30T03:15:56.867Z,15.70
2022-11-30T03:19:07.825Z,17.90
2022-11-30T03:22:11.026Z,17.30
2022-11-30T03:25:20.875Z,17.60
2022-11-30T03:28:23.850Z,17.05
2022-11-30T03:31:32.882Z,16.65
2022-11-30T03:34:43.817Z,17.17
2022-11-30T03:38:00.855Z,15.88
2022-11-30T03:41:13.874Z,17.75
2022-11-30T03:44:17.071Z,20.05
2022-11-30T03:47:26.814Z,18.87
2022-11-30T03:50:37.851Z,17.10
2022-11-30T03:53:41.944Z,18.45
2022-11-30T03:56:51.797Z,19.95
2022-11-30T03:59:54.717Z,18.13
2022-11-30T04:03:10.858Z,25.38
2022-11-30T04:06:22.761Z,19.80
2022-11-30T04:09:25.679Z,19.25
2022-11-30T04:12:34.791Z,19.73
2022-11-30T04:15:37.753Z,19.48
2022-11-30T04:18:47.772Z,20.75
2022-11-30T04:21:58.786Z,23.38
2022-11-30T04:25:01.767Z,17.77
2022-11-30T04:28:10.772Z,21.08
2022-11-30T04:31:20.895Z,24.15
2022-11-30T04:34:23.875Z,25.75
2022-11-30T04:37:34.780Z,24.00
2022-11-30T04:40:47.804Z,19.27
2022-11-30T04:43:50.806Z,24.30
2022-11-30T04:47:00.792Z,23.85
2022-11-30T04:50:05.051Z,28.58
2022-11-30T04:56:25.730Z,22.60
2022-11-30T04:59:28.726Z,26.77
2022-11-30T05:02:37.724Z,26.40
2022-11-30T05:05:40.705Z,27.23
2022-11-30T05:08:51.741Z,26.30
2022-11-30T05:12:00.775Z,22.80
2022-11-30T05:15:04.029Z,23.60
2022-11-30T05:18:13.713Z,25.27
2022-11-30T05:21:17.850Z,26.00
2022-11-30T05:27:38.742Z,24.02
2022-11-30T05:30:43.348Z,23.05
2022-11-30T05:33:58.680Z,29.50
2022-11-30T05:37:01.673Z,21.42
2022-11-30T05:40:14.723Z,25.27
2022-11-30T05:43:25.685Z,26.00
2022-11-30T05:46:40.656Z,24.80
2022-11-30T05:49:50.696Z,26.63
2022-11-30T05:53:02.692Z,29.60
2022-11-30T05:56:10.390Z,28.13
2022-11-30T05:59:19.712Z,28.42
2022-11-30T06:02:29.749Z,28.50
2022-11-30T06:09:28.244Z,24.25
2022-11-30T06:15:47.597Z,28.20
2022-11-30T06:18:57.246Z,26.27
2022-11-30T06:22:07.223Z,26.23
2022-11-30T06:25:11.791Z,21.85
2022-11-30T06:28:21.222Z,26.08
2022-11-30T06:31:24.236Z,25.55
2022-11-30T06:34:34.186Z,25.23
2022-11-30T06:37:44.222Z,26.58
2022-11-30T06:40:56.168Z,24.10
2022-11-30T06:44:06.203Z,24.40
2022-11-30T06:47:09.210Z,30.58
2022-11-30T06:50:21.220Z,24.98
2022-11-30T06:53:24.182Z,27.52
2022-11-30T06:56:35.157Z,26.70
2022-11-30T06:59:42.149Z,28.95
2022-11-30T07:02:52.205Z,25.05
2022-11-30T07:06:02.170Z,31.48
2022-11-30T07:09:12.183Z,31.05
2022-11-30T07:12:16.940Z,25.27
2022-11-30T07:15:26.176Z,26.83
2022-11-30T07:18:32.127Z,25.55
2022-11-30T07:21:42.164Z,25.17
2022-11-30T07:25:02.056Z,26.33
2022-11-30T07:28:15.179Z,25.92
2022-11-30T07:31:29.186Z,28.80
2022-11-30T07:34:32.347Z,28.20
2022-11-30T07:37:42.119Z,25.27
2022-11-30T07:40:45.065Z,25.20
2022-11-30T07:43:56.187Z,24.48
2022-11-30T07:47:00.765Z,23.90
2022-11-30T07:50:10.136Z,22.02
2022-11-30T07:53:20.192Z,23.60
2022-11-30T07:56:24.233Z,25.70
2022-11-30T07:59:35.099Z,24.85
2022-11-30T08:02:44.101Z,24.42
2022-11-30T08:05:47.191Z,25.48
2022-11-30T08:08:59.177Z,22.42
2022-11-30T08:12:09.125Z,21.55
2022-11-30T08:15:21.246Z,25.02
2022-11-30T08:18:24.677Z,21.80
2022-11-30T08:21:34.118Z,25.98
2022-11-30T08:24:44.097Z,23.98
2022-11-30T08:27:53.101Z,29.50
2022-11-30T08:31:07.217Z,25.98
2022-11-30T08:34:21.129Z,29.27
2022-11-30T08:37:37.156Z,26.67
2022-11-30T08:40:40.177Z,29.75
2022-11-30T08:43:50.077Z,29.52
2022-11-30T08:46:54.573Z,27.15
2022-11-30T08:50:05.143Z,25.63
2022-11-30T08:53:15.102Z,32.33
2022-11-30T08:56:21.450Z,28.13
2022-11-30T08:59:31.071Z,24.60
2022-11-30T09:02:42.073Z,27.40
2022-11-30T09:05:52.072Z,24.70
2022-11-30T09:08:57.703Z,27.45
2022-11-30T09:12:07.090Z,29.17
2022-11-30T09:15:18.069Z,22.27
2022-11-30T09:18:29.032Z,25.25
2022-11-30T09:21:39.075Z,23.77
2022-11-30T09:24:42.298Z,31.20
2022-11-30T09:27:52.027Z,25.60
2022-11-30T09:30:55.286Z,22.30
2022-11-30T09:34:06.026Z,26.03
2022-11-30T09:37:22.073Z,25.15
2022-11-30T09:40:25.250Z,24.55
2022-11-30T09:43:49.032Z,22.75
2022-11-30T09:47:11.011Z,24.73
2022-11-30T09:50:20.756Z,24.55
2022-11-30T09:53:40.233Z,24.17
2022-11-30T09:56:51.983Z,21.08
2022-11-30T09:59:58.345Z,24.55
2022-11-30T10:03:13.125Z,26.65
2022-11-30T10:06:33.022Z,25.10
2022-11-30T10:10:09.373Z,27.17
2022-11-30T10:13:47.973Z,25.33
2022-11-30T10:17:06.983Z,25.57
2022-11-30T10:20:53.141Z,23.83
2022-11-30T10:24:25.978Z,23.45
2022-11-30T10:27:49.730Z,22.60
2022-11-30T10:30:59.041Z,22.15
2022-11-30T10:34:24.996Z,26.80
2022-11-30T10:37:42.976Z,24.15
2022-11-30T10:40:53.982Z,26.13
2022-11-30T10:44:09.949Z,24.73
2022-11-30T10:47:29.961Z,23.08
2022-11-30T10:50:35.435Z,26.08
2022-11-30T10:53:44.942Z,23.10
2022-11-30T10:56:49.858Z,23.67
2022-11-30T11:00:01.966Z,21.40
2022-11-30T11:03:30.949Z,23.15
2022-11-30T11:06:42.005Z,20.40
2022-11-30T11:09:55.961Z,20.88
2022-11-30T11:13:00.687Z,24.02
2022-11-30T11:16:12.976Z,22.45
2022-11-30T11:19:35.600Z,21.08
2022-11-30T11:22:44.919Z,20.33
2022-11-30T11:26:00.035Z,22.67
2022-11-30T11:29:04.458Z,19.58
2022-11-30T11:32:30.933Z,19.55
2022-11-30T11:35:38.921Z,18.98
2022-11-30T11:38:50.948Z,21.27
2022-11-30T11:42:00.920Z,20.20
2022-11-30T11:45:15.848Z,22.17
2022-11-30T11:48:42.921Z,22.90
2022-11-30T11:51:52.857Z,22.17
2022-11-30T11:55:02.324Z,18.38
2022-11-30T11:58:13.882Z,22.80
2022-11-30T12:01:44.890Z,21.77
2022-11-30T12:04:58.870Z,24.38
2022-11-30T12:08:13.683Z,20.35
2022-11-30T12:11:27.886Z,19.92
2022-11-30T12:14:39.886Z,23.90
2022-11-30T12:17:58.126Z,29.80
2022-11-30T12:21:14.855Z,24.75
2022-11-30T12:25:07.870Z,20.67
2022-11-30T12:28:24.448Z,19.98
2022-11-30T12:31:46.917Z,20.38
2022-11-30T12:35:12.821Z,22.80
2022-11-30T12:38:39.529Z,25.48
2022-11-30T12:41:57.885Z,26.63
2022-11-30T12:45:23.823Z,24.75
2022-11-30T12:48:35.740Z,25.17
2022-11-30T12:51:59.842Z,31.60
2022-11-30T12:55:28.822Z,29.20
2022-11-30T12:58:51.840Z,29.80
2022-11-30T13:02:28.843Z,31.70
2022-11-30T13:05:43.828Z,25.17
2022-11-30T13:08:59.803Z,27.92
2022-11-30T13:12:18.826Z,26.02
2022-11-30T13:15:27.395Z,32.17
2022-11-30T13:18:40.854Z,26.92
2022-11-30T13:21:55.864Z,27.00
2022-11-30T13:25:51.931Z,27.80
2022-11-30T13:29:13.823Z,32.17
2022-11-30T13:32:56.805Z,27.08
2022-11-30T13:36:01.821Z,29.08
2022-11-30T13:39:32.785Z,26.70
2022-11-30T13:42:51.778Z,28.02
2022-11-30T13:46:19.847Z,35.00
2022-11-30T13:49:35.803Z,29.42
2022-11-30T13:53:18.433Z,29.88
2022-11-30T13:56:48.475Z,33.45
2022-11-30T14:00:00.814Z,32.67
2022-11-30T14:03:26.812Z,29.83
2022-11-30T14:06:57.778Z,26.30
2022-11-30T14:10:36.761Z,28.85
2022-11-30T14:13:39.773Z,29.73
2022-11-30T14:16:57.759Z,29.23
2022-11-30T14:20:09.859Z,28.83
2022-11-30T14:23:24.792Z,29.83
2022-11-30T14:26:43.739Z,30.52
2022-11-30T14:30:00.756Z,29.80
2022-11-30T14:33:22.728Z,30.15
2022-11-30T14:36:42.759Z,28.20
2022-11-30T14:39:48.271Z,34.58
2022-11-30T14:43:00.740Z,29.38
2022-11-30T14:46:15.887Z,31.13
2022-11-30T14:49:29.751Z,26.75
2022-11-30T14:53:14.708Z,29.77
2022-11-30T14:56:33.715Z,31.52
2022-11-30T14:59:54.696Z,28.05
2022-11-30T15:02:57.741Z,34.38
2022-11-30T15:06:11.688Z,29.83
2022-11-30T15:09:25.700Z,30.25
2022-11-30T15:12:28.774Z,27.27
2022-11-30T15:15:41.771Z,22.88
2022-11-30T15:18:51.658Z,24.70
2022-11-30T15:22:04.701Z,29.17
2022-11-30T15:25:20.717Z,33.45
2022-11-30T15:28:29.195Z,30.08
2022-11-30T15:31:43.741Z,31.80
2022-11-30T15:34:56.086Z,28.38
2022-11-30T15:38:07.684Z,31.35
2022-11-30T15:41:26.633Z,28.23
2022-11-30T15:44:42.096Z,31.45
2022-11-30T15:47:51.667Z,31.75
2022-11-30T15:50:54.839Z,28.50
2022-11-30T15:54:05.635Z,28.67
2022-11-30T15:57:15.697Z,31.15
2022-11-30T16:00:22.482Z,27.42
2022-11-30T16:03:31.669Z,29.30
2022-11-30T16:06:45.010Z,29.67
2022-11-30T16:09:55.649Z,26.70
2022-11-30T16:13:05.629Z,29.45
2022-11-30T16:16:13.574Z,28.23
2022-11-30T16:19:22.723Z,29.10
2022-11-30T16:22:25.894Z,30.40
2022-11-30T16:25:36.610Z,34.13
2022-11-30T16:28:39.914Z,29.88
2022-11-30T16:31:49.683Z,39.47
2022-11-30T16:34:52.782Z,33.03
2022-11-30T16:38:02.604Z,30.95
2022-11-30T16:41:17.173Z,33.00
2022-11-30T16:44:26.617Z,32.88
2022-11-30T16:47:36.625Z,30.95
2022-11-30T16:50:46.636Z,38.38
2022-11-30T16:53:56.595Z,39.03
2022-11-30T16:57:00.930Z,36.53
2022-11-30T17:00:12.630Z,34.33
2022-11-30T17:03:23.192Z,30.92
2022-11-30T17:06:32.592Z,30.52
2022-11-30T17:09:41.641Z,31.13
2022-11-30T17:12:46.081Z,28.88
2022-11-30T17:15:56.556Z,28.38
2022-11-30T17:18:59.555Z,33.63
2022-11-30T17:22:10.606Z,32.08
2022-11-30T17:25:24.551Z,31.25
2022-11-30T17:28:28.843Z,35.50
2022-11-30T17:31:38.542Z,31.60
2022-11-30T17:34:47.728Z,31.60
2022-11-30T17:38:00.573Z,30.05
2022-11-30T17:41:06.505Z,28.63
2022-11-30T17:44:18.539Z,31.52
2022-11-30T17:47:28.573Z,26.02
2022-11-30T17:50:38.523Z,32.53
2022-11-30T17:53:50.540Z,28.17
2022-11-30T17:57:01.520Z,27.45
2022-11-30T18:00:08.822Z,29.48
2022-11-30T18:03:18.562Z,30.20
2022-11-30T18:06:28.533Z,27.45
2022-11-30T18:09:31.602Z,30.58
2022-11-30T18:12:41.537Z,30.53
2022-11-30T18:15:45.934Z,28.30
2022-11-30T18:18:55.516Z,27.52
2022-11-30T18:21:58.582Z,29.05
2022-11-30T18:25:08.528Z,28.30
2022-11-30T18:28:18.575Z,28.83
2022-11-30T18:31:29.605Z,25.50
2022-11-30T18:34:39.515Z,27.55
2022-11-30T18:37:49.483Z,28.02
2022-11-30T18:40:52.938Z,28.98
2022-11-30T18:44:02.468Z,30.90
2022-11-30T18:47:13.511Z,31.38
2022-11-30T18:50:23.505Z,31.85
2022-11-30T18:53:26.561Z,29.65
2022-11-30T18:56:39.476Z,29.70
2022-11-30T18:59:42.400Z,27.88
2022-11-30T19:02:55.532Z,25.52
2022-11-30T19:06:05.456Z,24.77
2022-11-30T19:09:19.468Z,28.13
2022-11-30T19:12:22.693Z,25.77
2022-11-30T19:15:32.430Z,25.60
2022-11-30T19:18:37.495Z,25.23
2022-11-30T19:21:47.430Z,28.67
2022-11-30T19:24:50.700Z,28.13
2022-11-30T19:27:53.947Z,28.33
2022-11-30T19:30:57.075Z,24.08
2022-11-30T19:34:06.563Z,30.67
2022-11-30T19:37:12.287Z,30.30
2022-11-30T19:40:16.134Z,25.20
2022-11-30T19:43:19.158Z,27.60
2022-11-30T19:46:22.407Z,27.23
2022-11-30T19:49:26.842Z,23.80
2022-11-30T19:52:30.456Z,27.05
2022-11-30T19:55:34.031Z,22.45
2022-11-30T19:58:37.582Z,23.98
2022-11-30T20:01:40.835Z,24.55
2022-11-30T20:04:45.458Z,21.17
2022-11-30T20:07:48.618Z,23.77
2022-11-30T20:10:51.642Z,19.48
2022-11-30T20:13:55.299Z,20.27
2022-11-30T20:16:58.335Z,18.67
2022-11-30T20:20:03.353Z,19.48
2022-11-30T20:23:06.649Z,21.25
2022-11-30T20:26:15.616Z,19.23
2022-11-30T20:29:19.640Z,19.15
2022-11-30T20:32:22.689Z,17.95
2022-11-30T20:35:26.971Z,19.58
2022-11-30T20:38:30.266Z,18.52
2022-11-30T20:41:34.641Z,20.93
2022-11-30T20:44:37.745Z,19.67
2022-11-30T20:47:40.692Z,19.20
2022-11-30T20:51:00.936Z,19.42
2022-11-30T20:54:09.068Z,23.00
2022-11-30T20:57:12.085Z,18.50
2022-11-30T21:00:18.529Z,20.88
2022-11-30T21:03:21.694Z,19.05
2022-11-30T21:06:26.389Z,19.98
2022-11-30T21:09:29.409Z,18.85
2022-11-30T21:12:32.434Z,19.30
2022-11-30T21:15:35.452Z,20.85
2022-11-30T21:18:40.553Z,19.50
2022-11-30T21:21:44.944Z,20.35
2022-11-30T21:24:50.605Z,19.55
2022-11-30T21:27:53.700Z,19.65
2022-11-30T21:30:56.708Z,18.42
2022-11-30T21:34:00.809Z,19.33
2022-11-30T21:40:10.802Z,19.05
2022-11-30T21:43:13.967Z,20.45
2022-11-30T21:46:20.551Z,19.45
2022-11-30T21:49:24.694Z,22.80
2022-11-30T21:55:33.278Z,16.05
2022-11-30T22:01:42.779Z,20.10
2022-11-30T22:04:45.975Z,20.13
2022-11-30T22:07:50.596Z,25.70
2022-11-30T22:10:54.197Z,17.83
2022-11-30T22:13:57.830Z,22.83
2022-11-30T22:17:00.763Z,17.25
2022-11-30T22:20:03.868Z,21.23
2022-11-30T22:23:08.221Z,18.33
2022-11-30T22:26:14.513Z,19.23
2022-11-30T22:29:20.299Z,20.95
2022-11-30T22:32:23.368Z,17.00
2022-11-30T22:35:26.496Z,19.08
2022-11-30T22:38:31.921Z,20.02
2022-11-30T22:41:34.993Z,19.00
2022-11-30T22:44:37.990Z,20.58
2022-11-30T22:47:40.992Z,17.08
2022-11-30T22:50:44.611Z,16.90
2022-11-30T22:53:49.996Z,14.70
2022-11-30T22:56:53.803Z,16.50
2022-11-30T22:59:56.756Z,13.73
2022-11-30T23:03:00.200Z,14.20
2022-11-30T23:06:03.343Z,15.35
2022-11-30T23:09:12.808Z,17.42
2022-11-30T23:12:35.887Z,12.38
2022-11-30T23:15:39.657Z,13.40
2022-11-30T23:18:46.531Z,12.93
2022-11-30T23:21:50.212Z,13.20
2022-11-30T23:24:54.608Z,13.50
2022-11-30T23:27:57.570Z,13.20
2022-11-30T23:31:03.756Z,13.25
2022-11-30T23:34:09.307Z,11.75
2022-11-30T23:37:12.446Z,14.05
2022-11-30T23:40:17.234Z,14.15
2022-11-30T23:43:20.605Z,14.95
2022-11-30T23:46:24.073Z,13.57
2022-11-30T23:49:27.094Z,12.38
2022-11-30T23:52:30.094Z,13.88
2022-11-30T23:55:36.262Z,17.80
2022-11-30T23:58:39.846Z,13.60
